Crew | Aerofun Virtual



 METAR AND TAF INFORMATION
METAR FOR LECO
ADDS - METARS form results

(0457 UTC 20 May 2019)
Data provider http://aviationweather.gov/metar/data/
 
METAR text: LECO 200430Z 20003KT 140V240 0200 R21/0900N FG NSC 07/07 Q1015 TEMPO 1500 BCFG
Conditions at: LECO (LA CORUNA/ALVEDR, ES) observed 0430 UTC 20 May 2019
Temperature: 7.0°C (45°F)
Dewpoint: 7.0°C (45°F) [RH = 100%]
Pressure (altimeter): 29.97 inches Hg (1015.0 mb)
Winds: from the SSW (200 degrees) at 3 MPH (3 knots; 1.5 m/s)
Visibility: 0.12 miles (0.19 km)
Ceiling: at least 12,000 feet AGL
Clouds: sky clear below 12,000 feet AGL
Weather: FG  (fog)

METAR text: LECO 200400Z 18006KT 4000 1000S BCFG NSC 07/07 Q1015 TEMPO 1500 BCFG
Conditions at: LECO (LA CORUNA/ALVEDR, ES) observed 0400 UTC 20 May 2019
Temperature: 7.0°C (45°F)
Dewpoint: 7.0°C (45°F) [RH = 100%]
Pressure (altimeter): 29.97 inches Hg (1015.0 mb)
Winds: from the S (180 degrees) at 7 MPH (6 knots; 3.1 m/s)
Visibility: 2.49 miles (4.01 km)
Ceiling: at least 12,000 feet AGL
Clouds: sky clear below 12,000 feet AGL
Weather: BCFG  (patches of fog)

Forecast for: LECO (LA CORUNA/ALVEDR, ES)
Text: TAF LECO 200200Z 2003/2103 36005KT 8000 SCT025 TX17/2015Z TN04/2005Z
Forecast period: 0300 UTC 20 May 2019 to 0300 UTC 21 May 2019
Forecast type: FROM: standard forecast or significant change
Winds: from the N (360 degrees) at 6 MPH (5 knots; 2.6 m/s)
Visibility: 5 miles (8 km)
Ceiling: at least 12,000 feet AGL
Clouds: scattered clouds at 2500 feet AGL
Weather: no significant weather forecast for this period
Text: PROB40
Forecast period: 0300 to 0700 UTC 20 May 2019
Forecast type: TEMPORARY: The following changes expected for less than half the time period
Visibility: 1.86 miles (2.99 km)
Ceiling: unknown
Clouds: missing
Weather: BCFG  (patches of fog)
Text: TEMPO 2003/2007 3000 BCFG
Forecast period: 0300 to 0700 UTC 20 May 2019
Forecast type: TEMPORARY: The following changes expected for less than half the time period
Visibility: 0.93 miles (1.50 km)
Ceiling: unknown
Clouds: missing
Weather: BCFG  (patches of fog)

 AIRPORT MAP

 RUNWAY INFORMATION
Runway 03 Runway length 6358 ft Runway width 148 ft
Runway elevation 327 ft Runway displaced threshold 0 ft Runway heading 31
Runway 21 Runway length 6358 ft Runway width 148 ft
Runway elevation 286 ft Runway displaced threshold 0 ft Runway heading 211

 AIRPORT FREQUENCIES
Type APP Name SANTIAGO A Frequency 120.2 MHZ
Type GND Name GND Frequency 121.7 MHZ
Type TWR Name A Coruña T Frequency 118.3 MHZ

 AIRPORT NEAR NAVIGATION AIDS
Type NDB Name La Coruna Frequency 401 KHZ
Type VOR-DME Name La Coruna Frequency 115100 KHZ